Time;durP1;ratioP1;P1;durP2;ratioP2;P2;SDS_P1;SDS_P2;PMS_P1;PMS_P2;Temp;Humidity;BMP_temperature;BMP_pressure;BME280_temperature;BME280_humidity;BME280_pressure;Samples;Min_cycle;Max_cycle;Signal;HPM_P1;HPM_P2
2022/04/08 00:01:25;;;;;;;4.88;2.38;;;;;;;7.91;100.00;96990.25;5078267;28;20036;-78
2022/04/08 00:03:52;;;;;;;6.55;2.90;;;;;;;7.88;100.00;96979.31;5078236;28;20395;-78
2022/04/08 00:06:18;;;;;;;4.53;2.20;;;;;;;7.89;100.00;96986.16;5078242;28;20166;-78
2022/04/08 00:08:44;;;;;;;6.97;2.35;;;;;;;7.85;98.75;96995.13;5078314;28;20056;-78
2022/04/08 00:11:10;;;;;;;5.95;2.70;;;;;;;7.82;98.30;96977.22;5078104;28;20028;-78
2022/04/08 00:13:35;;;;;;;2.15;1.73;;;;;;;7.78;96.95;96984.38;5077870;28;20028;-78
2022/04/08 00:16:00;;;;;;;3.92;2.13;;;;;;;7.78;96.01;96986.16;5078067;28;20025;-78
2022/04/08 00:18:26;;;;;;;4.38;1.98;;;;;;;7.78;95.93;96978.38;5078002;28;20036;-78
2022/04/08 00:20:51;;;;;;;4.90;1.83;;;;;;;7.86;95.64;96989.81;5078173;28;20078;-78
2022/04/08 00:23:17;;;;;;;4.00;1.95;;;;;;;7.83;95.59;97003.00;5060010;28;20063;-78
2022/04/08 00:25:42;;;;;;;5.72;2.40;;;;;;;7.74;95.85;96996.75;5078063;28;20025;-78
2022/04/08 00:28:07;;;;;;;3.03;1.90;;;;;;;7.82;95.87;97014.31;5078268;28;20499;-78
2022/04/08 00:30:33;;;;;;;4.43;1.95;;;;;;;7.77;95.32;96998.28;5059618;28;20086;-79
2022/04/08 00:32:59;;;;;;;4.38;2.28;;;;;;;7.68;95.38;96984.28;5078130;28;20115;-78
2022/04/08 00:35:24;;;;;;;4.30;1.98;;;;;;;7.71;96.19;97002.19;5078222;28;20361;-78
2022/04/08 00:37:50;;;;;;;4.07;2.03;;;;;;;7.64;95.97;96998.41;5078017;28;20040;-78
2022/04/08 00:40:16;;;;;;;4.22;1.95;;;;;;;7.71;95.63;97007.38;5059921;28;20025;-78
2022/04/08 00:42:43;;;;;;;4.90;1.80;;;;;;;7.68;95.21;97005.00;5077623;28;20028;-78
2022/04/08 00:45:09;;;;;;;3.00;1.77;;;;;;;7.67;95.48;96998.19;5059778;28;20021;-78
2022/04/08 00:47:36;;;;;;;6.72;2.08;;;;;;;7.68;94.93;97009.38;5077784;28;20028;-79
2022/04/08 00:50:04;;;;;;;2.08;1.45;;;;;;;7.65;94.73;97010.41;5059719;28;20051;-78
2022/04/08 00:52:33;;;;;;;3.70;1.90;;;;;;;7.65;94.73;97001.84;5077449;28;20070;-79
2022/04/08 00:54:59;;;;;;;3.58;2.00;;;;;;;7.60;94.66;96999.59;5077825;28;20033;-78
2022/04/08 00:57:24;;;;;;;5.20;2.13;;;;;;;7.47;95.06;96981.59;5077682;28;20078;-78
2022/04/08 00:59:50;;;;;;;3.67;1.98;;;;;;;7.52;95.88;96988.19;5077975;28;20484;-79
2022/04/08 01:02:16;;;;;;;7.97;2.67;;;;;;;7.55;96.13;97003.50;5077850;28;20029;-78
2022/04/08 01:04:41;;;;;;;3.90;2.15;;;;;;;7.50;96.96;97004.66;5075708;28;20107;-78
2022/04/08 01:07:07;;;;;;;4.97;1.95;;;;;;;7.39;97.05;97001.25;5074345;28;20029;-78
2022/04/08 01:09:32;;;;;;;3.92;2.05;;;;;;;7.37;97.40;97006.50;5074300;28;20396;-78
2022/04/08 01:11:58;;;;;;;5.20;2.42;;;;;;;7.23;97.58;97001.56;5074267;28;20165;-78
2022/04/08 01:14:24;;;;;;;3.78;2.00;;;;;;;7.12;97.65;97004.13;5074535;28;20025;-78
2022/04/08 01:16:49;;;;;;;4.78;1.92;;;;;;;7.11;97.91;97015.41;5074244;28;20104;-78
2022/04/08 01:19:15;;;;;;;6.18;1.85;;;;;;;7.07;97.80;97024.34;5056424;28;20028;-78
2022/04/08 01:21:40;;;;;;;4.15;1.92;;;;;;;7.00;97.78;97011.88;5073987;28;20383;-78
2022/04/08 01:24:10;;;;;;;4.68;2.40;;;;;;;6.97;98.26;97022.44;5074280;28;20060;-78
2022/04/08 01:26:35;;;;;;;4.22;1.98;;;;;;;7.00;97.57;97017.06;5055792;28;20483;-78
2022/04/08 01:29:00;;;;;;;4.53;2.10;;;;;;;7.06;98.02;97028.72;5074056;28;20032;-78
2022/04/08 01:31:29;;;;;;;2.15;1.67;;;;;;;6.96;97.73;97031.16;5056207;28;20024;-78
2022/04/08 01:33:55;;;;;;;3.88;2.05;;;;;;;6.96;98.30;97027.75;5074145;28;20029;-78
2022/04/08 01:36:20;;;;;;;7.35;2.63;;;;;;;6.82;98.23;97028.75;5073964;28;20039;-78
2022/04/08 01:38:45;;;;;;;5.90;2.17;;;;;;;6.84;98.72;97051.94;5055689;28;20086;-78
2022/04/08 01:41:11;;;;;;;3.83;1.92;;;;;;;6.70;98.81;97048.59;5055743;28;20024;-78
2022/04/08 01:43:36;;;;;;;3.70;1.80;;;;;;;6.67;99.27;97042.81;5073925;28;20032;-78
2022/04/08 01:46:02;;;;;;;4.20;2.00;;;;;;;6.61;99.30;97035.47;5074090;28;20035;-78
2022/04/08 01:48:28;;;;;;;4.03;1.80;;;;;;;6.64;99.45;97053.38;5056028;28;20029;-78
2022/04/08 01:50:53;;;;;;;7.25;2.10;;;;;;;6.67;99.85;97059.16;5073250;28;20044;-78
2022/04/08 01:53:18;;;;;;;3.75;2.33;;;;;;;6.52;99.99;97042.13;5055605;28;20025;-78
2022/04/08 01:55:44;;;;;;;4.38;2.35;;;;;;;6.55;99.50;97057.44;5073248;28;20079;-78
2022/04/08 01:58:13;;;;;;;3.90;2.30;;;;;;;6.57;98.97;97057.31;5055663;28;20106;-78
2022/04/08 02:00:38;;;;;;;5.70;2.58;;;;;;;6.52;99.09;97060.25;5073388;28;20032;-78
2022/04/08 02:03:04;;;;;;;7.70;2.47;;;;;;;6.50;98.86;97062.13;5073475;28;20032;-78
2022/04/08 02:05:29;;;;;;;3.30;1.98;;;;;;;6.44;98.88;97059.97;5055222;28;20037;-77
2022/04/08 02:07:55;;;;;;;6.70;2.38;;;;;;;6.43;98.50;97058.31;5055442;28;20071;-77
2022/04/08 02:10:21;;;;;;;4.35;2.45;;;;;;;6.39;98.56;97057.72;5073189;28;20036;-77
2022/04/08 02:12:46;;;;;;;4.80;2.08;;;;;;;6.39;97.86;97062.88;5072924;28;20033;-77
2022/04/08 02:15:12;;;;;;;7.50;2.33;;;;;;;6.37;98.27;97067.34;5073189;28;20112;-77
2022/04/08 02:17:38;;;;;;;5.50;2.05;;;;;;;6.35;96.94;97063.19;5071937;28;20060;-77
2022/04/08 02:20:04;;;;;;;6.35;2.47;;;;;;;6.38;96.43;97055.25;5073310;28;20356;-77
2022/04/08 02:22:31;;;;;;;6.63;2.40;;;;;;;6.63;96.01;97082.75;5073037;28;20104;-77
2022/04/08 02:24:57;;;;;;;6.63;2.35;;;;;;;6.71;95.15;97085.63;5073007;28;20032;-77
2022/04/08 02:27:23;;;;;;;3.38;1.67;;;;;;;6.78;94.45;97083.41;5073103;28;20024;-77
2022/04/08 02:29:50;;;;;;;5.82;2.55;;;;;;;6.74;93.69;97081.06;5054607;28;20032;-77
2022/04/08 02:32:15;;;;;;;4.25;2.00;;;;;;;6.81;93.90;97083.19;5072848;28;20104;-77
2022/04/08 02:34:40;;;;;;;3.85;1.70;;;;;;;6.81;93.96;97065.09;5072658;28;20111;-77
2022/04/08 02:37:06;;;;;;;5.05;1.90;;;;;;;6.82;92.68;97075.31;5072824;28;20427;-77
2022/04/08 02:39:32;;;;;;;5.70;1.98;;;;;;;6.79;92.18;97083.31;5072525;28;20029;-77
2022/04/08 02:41:57;;;;;;;4.35;2.13;;;;;;;6.85;91.52;97087.22;5072918;28;20024;-77
2022/04/08 02:44:23;;;;;;;4.00;2.05;;;;;;;6.94;91.26;97092.53;5073064;28;20032;-77
2022/04/08 02:46:49;;;;;;;5.85;2.35;;;;;;;6.98;91.09;97098.31;5054481;28;20031;-78
2022/04/08 02:49:14;;;;;;;4.88;2.35;;;;;;;6.97;90.35;97087.16;5072545;28;20128;-78
2022/04/08 02:51:39;;;;;;;5.15;2.53;;;;;;;6.99;90.42;97089.59;5072155;28;20107;-78
2022/04/08 02:54:05;;;;;;;6.30;2.00;;;;;;;7.03;89.87;97098.81;5054372;28;20032;-78
2022/04/08 02:56:30;;;;;;;7.22;2.30;;;;;;;7.06;89.71;97113.28;5072769;28;20104;-77
2022/04/08 02:58:57;;;;;;;5.88;2.40;;;;;;;7.00;89.59;97099.03;5072627;28;20028;-78
2022/04/08 03:01:23;;;;;;;7.65;2.47;;;;;;;7.05;89.13;97125.41;5072426;28;20029;-78
2022/04/08 03:03:49;;;;;;;4.10;2.15;;;;;;;6.90;89.14;97100.63;5072164;28;20032;-78
2022/04/08 03:06:14;;;;;;;5.00;2.30;;;;;;;6.86;88.69;97110.38;5072211;28;20032;-78
2022/04/08 03:08:40;;;;;;;3.33;1.80;;;;;;;6.93;88.48;97126.28;5071860;28;20035;-78
2022/04/08 03:11:05;;;;;;;5.40;2.28;;;;;;;6.88;88.31;97118.03;5054313;28;20085;-78
2022/04/08 03:13:31;;;;;;;5.63;2.10;;;;;;;6.85;87.42;97105.31;5072250;28;20125;-78
2022/04/08 03:15:57;;;;;;;6.30;2.42;;;;;;;6.93;87.38;97121.13;5053951;28;20376;-78
2022/04/08 03:18:22;;;;;;;9.88;2.60;;;;;;;6.85;87.13;97120.84;5072099;28;20039;-78
2022/04/08 03:20:48;;;;;;;8.38;2.40;;;;;;;6.97;86.90;97131.13;5071831;28;20535;-78
2022/04/08 03:23:13;;;;;;;3.80;1.85;;;;;;;7.05;86.57;97134.94;5053952;28;20545;-79
2022/04/08 03:25:38;;;;;;;7.05;2.22;;;;;;;7.08;86.46;97126.94;5071759;28;21209;-78
2022/04/08 03:28:04;;;;;;;3.40;1.83;;;;;;;7.06;85.67;97108.13;5071679;28;20029;-79
2022/04/08 03:30:31;;;;;;;4.72;2.17;;;;;;;7.11;85.44;97124.94;5054039;28;20021;-79
2022/04/08 03:32:57;;;;;;;4.63;2.03;;;;;;;7.06;85.05;97119.28;5071544;28;20029;-79
2022/04/08 03:35:22;;;;;;;4.97;2.38;;;;;;;7.11;84.98;97124.13;5053811;28;20107;-79
2022/04/08 03:37:48;;;;;;;8.45;2.20;;;;;;;7.10;84.42;97138.84;5071467;28;20032;-79
2022/04/08 03:40:14;;;;;;;7.70;2.70;;;;;;;7.04;84.88;97133.25;5072280;28;20028;-78
2022/04/08 03:42:39;;;;;;;5.50;2.28;;;;;;;6.91;84.18;97133.31;5071785;28;20067;-79
2022/04/08 03:45:06;;;;;;;5.10;2.38;;;;;;;6.90;84.44;97132.50;5071853;28;20540;-79
2022/04/08 03:47:31;;;;;;;8.43;2.53;;;;;;;6.98;84.20;97145.72;5071784;28;20033;-78
2022/04/08 03:49:59;;;;;;;4.18;2.20;;;;;;;7.00;83.96;97156.81;5071584;28;20476;-78
2022/04/08 03:52:29;;;;;;;5.47;2.10;;;;;;;7.10;83.64;97159.53;5053411;28;20021;-79
2022/04/08 03:54:55;;;;;;;7.40;2.40;;;;;;;7.13;83.16;97148.97;5053607;28;20048;-79
2022/04/08 03:57:20;;;;;;;7.00;2.45;;;;;;;7.23;82.95;97149.13;5071771;28;20427;-78
2022/04/08 03:59:47;;;;;;;4.05;2.00;;;;;;;7.31;82.80;97174.47;5071323;28;20497;-78
2022/04/08 04:02:12;;;;;;;4.10;2.00;;;;;;;7.36;82.07;97177.53;5053807;28;20412;-78
2022/04/08 04:04:38;;;;;;;4.95;2.28;;;;;;;7.32;81.92;97169.16;5071307;28;20068;-78
2022/04/08 04:07:03;;;;;;;5.30;2.15;;;;;;;7.37;81.82;97172.22;5071356;28;20047;-78
2022/04/08 04:09:29;;;;;;;5.20;1.85;;;;;;;7.31;81.76;97171.88;5071716;28;20106;-79
2022/04/08 04:11:54;;;;;;;5.53;2.38;;;;;;;7.27;81.89;97204.94;5053247;28;20392;-78
2022/04/08 04:14:19;;;;;;;7.32;2.50;;;;;;;7.18;82.41;97188.28;5071621;28;20028;-79
2022/04/08 04:16:45;;;;;;;6.05;2.08;;;;;;;7.23;82.35;97206.09;5071237;28;20025;-79
2022/04/08 04:19:10;;;;;;;4.47;2.38;;;;;;;7.25;82.55;97212.00;5071476;28;20029;-78
2022/04/08 04:21:35;;;;;;;6.45;2.35;;;;;;;7.26;82.47;97216.22;5071549;28;20055;-79
2022/04/08 04:24:01;;;;;;;3.72;2.33;;;;;;;7.20;82.22;97206.28;5053182;28;20062;-79
2022/04/08 04:26:26;;;;;;;5.03;1.90;;;;;;;7.27;82.71;97219.63;5053399;28;20376;-79
2022/04/08 04:28:52;;;;;;;5.63;2.28;;;;;;;7.31;82.75;97219.31;5071517;28;20033;-79
2022/04/08 04:31:17;;;;;;;6.18;2.88;;;;;;;7.22;82.48;97207.84;5053307;28;20107;-79
2022/04/08 04:33:43;;;;;;;3.83;1.77;;;;;;;7.31;82.59;97221.88;5071251;28;20032;-79
2022/04/08 04:36:08;;;;;;;4.90;2.35;;;;;;;7.35;82.39;97230.28;5071275;28;20020;-78
2022/04/08 04:38:33;;;;;;;4.32;2.22;;;;;;;7.40;82.20;97221.22;5071511;28;20030;-78
2022/04/08 04:40:59;;;;;;;7.28;2.20;;;;;;;7.53;82.06;97252.25;5073403;28;20032;-78
2022/04/08 04:43:24;;;;;;;3.10;1.95;;;;;;;7.57;82.11;97251.06;5075162;28;20032;-78
2022/04/08 04:45:49;;;;;;;5.65;2.00;;;;;;;7.53;82.56;97243.66;5074790;28;20028;-78
2022/04/08 04:48:16;;;;;;;3.15;1.80;;;;;;;7.63;82.35;97255.81;5074983;28;20174;-78
2022/04/08 04:50:42;;;;;;;4.65;2.05;;;;;;;7.58;82.35;97250.13;5074452;28;20435;-78
2022/04/08 04:53:07;;;;;;;3.97;1.90;;;;;;;7.66;82.90;97265.13;5074830;28;20021;-78
2022/04/08 04:55:33;;;;;;;2.90;1.90;;;;;;;7.73;82.84;97274.13;5074918;28;20048;-78
2022/04/08 04:57:58;;;;;;;3.65;2.13;;;;;;;7.64;83.23;97260.06;5074670;28;20127;-78
2022/04/08 05:00:24;;;;;;;3.10;2.13;;;;;;;7.77;83.35;97274.72;5074808;28;20474;-78
2022/04/08 05:02:50;;;;;;;7.22;2.28;;;;;;;7.71;83.36;97269.06;5074508;28;20032;-78
2022/04/08 05:05:15;;;;;;;2.60;1.88;;;;;;;7.77;83.51;97288.50;5074669;28;20027;-78
2022/04/08 05:07:41;;;;;;;5.30;2.65;;;;;;;7.84;83.74;97296.66;5074468;28;20025;-78
2022/04/08 05:10:08;;;;;;;3.63;2.58;;;;;;;7.89;83.57;97304.91;5074663;28;20399;-78
2022/04/08 05:12:35;;;;;;;8.10;2.80;;;;;;;7.78;83.70;97287.56;5074533;28;20024;-78
2022/04/08 05:15:02;;;;;;;5.13;2.80;;;;;;;7.82;83.83;97291.56;5074453;28;20029;-79
2022/04/08 05:17:28;;;;;;;3.08;2.10;;;;;;;7.94;83.51;97308.00;5074426;28;20028;-79
2022/04/08 05:19:54;;;;;;;3.53;2.28;;;;;;;8.05;83.37;97313.22;5074183;28;20028;-78
2022/04/08 05:22:20;;;;;;;4.13;2.20;;;;;;;8.05;83.36;97323.59;5074294;28;20029;-78
2022/04/08 05:24:45;;;;;;;6.20;2.47;;;;;;;8.03;83.21;97314.28;5056331;28;20115;-78
2022/04/08 05:27:10;;;;;;;2.55;2.10;;;;;;;8.28;82.90;97347.81;5074467;28;20020;-78
2022/04/08 05:29:36;;;;;;;2.38;2.10;;;;;;;8.32;82.46;97338.88;5074450;28;20046;-78
2022/04/08 05:32:01;;;;;;;2.92;2.00;;;;;;;8.44;82.04;97345.78;5073825;28;20033;-78
2022/04/08 05:34:27;;;;;;;7.78;2.10;;;;;;;8.47;81.48;97329.16;5073930;28;20028;-78
2022/04/08 05:36:53;;;;;;;4.50;2.50;;;;;;;8.47;81.31;97344.72;5073850;28;20021;-78
2022/04/08 05:39:18;;;;;;;4.25;2.60;;;;;;;8.34;81.50;97346.53;5074055;28;20479;-78
2022/04/08 05:41:44;;;;;;;5.13;2.67;;;;;;;8.47;81.78;97366.31;5073703;28;20021;-78
2022/04/08 05:44:09;;;;;;;3.85;2.30;;;;;;;9.05;82.09;97370.63;5073771;28;20024;-77
2022/04/08 05:46:35;;;;;;;4.10;2.25;;;;;;;11.08;77.07;97361.97;5073829;28;20024;-78
2022/04/08 05:49:01;;;;;;;3.97;2.30;;;;;;;12.77;70.45;97362.72;5073491;28;20045;-78
2022/04/08 05:51:26;;;;;;;3.40;1.95;;;;;;;12.64;67.07;97358.63;5073945;28;20029;-78
2022/04/08 05:53:52;;;;;;;4.75;2.00;;;;;;;11.74;68.06;97377.13;5073548;28;20024;-79
2022/04/08 05:56:17;;;;;;;5.25;2.50;;;;;;;11.88;69.87;97379.41;5073829;28;20078;-78
2022/04/08 05:58:42;;;;;;;3.50;1.65;;;;;;;12.38;68.09;97386.28;5055700;28;20032;-78
2022/04/08 06:01:08;;;;;;;3.03;2.15;;;;;;;12.05;67.14;97379.66;5073479;28;20036;-75
2022/04/08 06:03:33;;;;;;;5.13;1.70;;;;;;;11.64;68.67;97392.75;5073531;28;20028;-76
2022/04/08 06:05:59;;;;;;;3.25;1.55;;;;;;;11.18;68.76;97375.03;5073396;28;20077;-76
2022/04/08 06:08:24;;;;;;;3.47;1.70;;;;;;;10.92;69.73;97390.28;5073648;28;20376;-78
2022/04/08 06:10:49;;;;;;;3.13;1.95;;;;;;;10.76;69.95;97392.50;5055354;28;20032;-78
2022/04/08 06:13:16;;;;;;;2.72;1.70;;;;;;;10.53;70.79;97384.81;5073450;28;20611;-78
2022/04/08 06:15:42;;;;;;;3.33;1.85;;;;;;;11.14;71.01;97415.34;5073237;28;20032;-78
2022/04/08 06:18:10;;;;;;;3.45;2.30;;;;;;;13.27;64.90;97420.78;5072970;28;20028;-79
2022/04/08 06:20:35;;;;;;;2.95;2.05;;;;;;;12.86;63.04;97404.50;5073146;28;20024;-79
2022/04/08 06:23:00;;;;;;;2.78;2.05;;;;;;;12.18;64.00;97417.59;5073408;28;20167;-79
2022/04/08 06:25:26;;;;;;;3.67;2.08;;;;;;;11.58;65.65;97429.78;5073222;28;20024;-79
2022/04/08 06:27:57;;;;;;;3.40;1.95;;;;;;;11.12;66.63;97430.25;5072806;28;20112;-79
2022/04/08 06:30:22;;;;;;;;;;;;;;;10.86;67.37;97450.66;5073445;28;20035;-79
2022/04/08 06:32:47;;;;;;;7.15;2.22;;;;;;;10.66;68.80;97439.28;5072539;28;19920;-78
2022/04/08 06:35:13;;;;;;;5.43;2.65;;;;;;;10.62;69.39;97443.09;5055241;28;20025;-78
2022/04/08 06:37:39;;;;;;;3.25;2.13;;;;;;;10.57;69.55;97456.47;5055094;28;20067;-78
2022/04/08 06:40:09;;;;;;;3.83;2.45;;;;;;;10.38;69.83;97456.34;5072733;28;20085;-79
2022/04/08 06:42:36;;;;;;;4.53;2.50;;;;;;;10.27;70.10;97438.97;5054873;28;20070;-77
2022/04/08 06:45:03;;;;;;;5.22;2.45;;;;;;;10.42;70.02;97447.34;5072332;28;20031;-79
2022/04/08 06:47:28;;;;;;;4.70;2.17;;;;;;;10.20;70.73;97441.22;5072372;28;20036;-77
2022/04/08 06:49:54;;;;;;;4.80;2.08;;;;;;;9.96;71.23;97456.19;5072411;28;20044;-78
2022/04/08 06:52:19;;;;;;;3.88;2.45;;;;;;;9.87;71.97;97467.31;5072618;28;20017;-78
2022/04/08 06:54:44;;;;;;;4.03;2.05;;;;;;;9.68;72.94;97475.72;5077939;28;20024;-78
2022/04/08 06:57:10;;;;;;;3.38;1.85;;;;;;;9.58;73.37;97479.97;5089947;28;20102;-81
2022/04/08 06:59:36;;;;;;;2.95;1.60;;;;;;;9.55;73.85;97473.22;5072488;28;20033;-80
2022/04/08 07:02:01;;;;;;;2.95;2.03;;;;;;;9.35;73.76;97450.53;5060333;28;20024;-82
2022/04/08 07:04:27;;;;;;;4.97;2.20;;;;;;;9.69;73.74;97482.56;5081550;28;20498;-82
2022/04/08 07:06:53;;;;;;;5.05;2.08;;;;;;;9.68;73.61;97481.72;5064585;28;20084;-82
2022/04/08 07:09:19;;;;;;;4.38;2.30;;;;;;;9.72;73.76;97466.72;5062870;28;20028;-82
2022/04/08 07:11:44;;;;;;;3.83;2.42;;;;;;;10.30;73.40;97487.34;5081884;28;20012;-82
2022/04/08 07:14:09;;;;;;;4.18;1.88;;;;;;;10.62;71.19;97483.00;5082093;28;20107;-82
2022/04/08 07:16:35;;;;;;;3.63;1.90;;;;;;;10.76;70.08;97501.88;5080483;28;20048;-83
2022/04/08 07:19:00;;;;;;;1.90;1.70;;;;;;;10.78;69.92;97505.16;5061418;28;20115;-82
2022/04/08 07:21:26;;;;;;;2.63;2.00;;;;;;;10.65;70.03;97519.16;5072410;28;20036;-81
2022/04/08 07:23:51;;;;;;;6.32;1.83;;;;;;;10.51;70.55;97509.06;5071862;28;20116;-82
2022/04/08 07:26:20;;;;;;;3.83;2.00;;;;;;;10.60;70.51;97510.09;5071962;28;20033;-81
2022/04/08 07:28:46;;;;;;;4.47;1.88;;;;;;;10.53;69.81;97532.34;5071659;28;20021;-82
2022/04/08 07:31:12;;;;;;;2.92;2.08;;;;;;;10.31;70.65;97544.47;5028638;28;20045;-80
2022/04/08 07:33:37;;;;;;;2.95;1.90;;;;;;;10.08;71.17;97545.44;5012675;28;20041;-80
2022/04/08 07:36:04;;;;;;;3.00;2.10;;;;;;;9.93;71.84;97540.44;5029121;28;20071;-79
2022/04/08 07:38:30;;;;;;;3.92;2.22;;;;;;;9.91;73.18;97563.16;5012880;28;20033;-80
2022/04/08 07:40:57;;;;;;;2.97;1.88;;;;;;;9.90;72.92;97556.31;5029547;28;20127;-82
2022/04/08 07:43:23;;;;;;;4.53;1.90;;;;;;;9.85;72.89;97562.78;5029345;28;20045;-82
2022/04/08 07:45:48;;;;;;;2.58;1.80;;;;;;;9.94;73.39;97569.88;5029422;28;20041;-82
2022/04/08 07:48:14;;;;;;;3.60;1.90;;;;;;;9.97;73.41;97585.25;5012512;28;20125;-81
2022/04/08 07:50:40;;;;;;;3.20;2.15;;;;;;;9.91;73.12;97586.56;5012605;28;20156;-81
2022/04/08 07:53:05;;;;;;;4.05;2.17;;;;;;;9.95;73.70;97587.97;5012415;28;20029;-81
2022/04/08 07:55:31;;;;;;;4.72;2.65;;;;;;;9.95;73.43;97593.19;5029273;28;20121;-83
2022/04/08 07:57:57;;;;;;;3.45;2.50;;;;;;;9.97;73.17;97573.06;5012525;28;20064;-83
2022/04/08 08:00:25;;;;;;;3.95;2.00;;;;;;;10.24;72.92;97588.38;5012662;28;20560;-82
2022/04/08 08:02:52;;;;;;;3.30;2.10;;;;;;;10.36;72.49;97599.56;5060312;28;20064;-83
2022/04/08 08:05:20;;;;;;;2.63;2.20;;;;;;;10.24;71.40;97605.72;5091661;28;20032;-83
2022/04/08 08:07:48;;;;;;;5.05;2.88;;;;;;;9.97;72.54;97593.88;5091478;28;20024;-83
2022/04/08 08:10:15;;;;;;;4.60;2.75;;;;;;;9.92;73.12;97629.81;5073211;28;20467;-83
2022/04/08 08:12:40;;;;;;;3.53;2.35;;;;;;;9.66;73.98;97591.97;5091601;28;20073;-82
2022/04/08 08:15:06;;;;;;;6.82;2.50;;;;;;;9.69;76.38;97626.38;5095123;28;20088;-81
2022/04/08 08:17:31;;;;;;;4.68;2.60;;;;;;;9.59;78.61;97627.16;5078904;28;20536;-82
2022/04/08 08:19:57;;;;;;;4.97;3.08;;;;;;;9.53;80.45;97645.81;5077897;28;20471;-83
2022/04/08 08:22:23;;;;;;;5.05;2.90;;;;;;;9.38;82.09;97665.97;5079072;28;20024;-79
2022/04/08 08:24:48;;;;;;;4.25;3.22;;;;;;;9.27;86.35;97694.47;5096684;28;20472;-85
2022/04/08 08:27:14;;;;;;;4.00;2.97;;;;;;;8.88;89.53;97689.44;5077155;28;20020;-83
2022/04/08 08:29:39;;;;;;;7.00;5.20;;;;;;;8.60;93.43;97707.91;5077187;28;20090;-84
2022/04/08 08:32:05;;;;;;;9.63;6.90;;;;;;;8.41;95.66;97713.53;5095229;28;20020;-83
2022/04/08 08:34:30;;;;;;;6.32;4.88;;;;;;;8.35;98.23;97717.34;5077250;28;20536;-82
2022/04/08 08:36:59;;;;;;;6.55;4.03;;;;;;;8.48;99.10;97717.38;5077022;28;20187;-82
2022/04/08 08:39:25;;;;;;;7.50;4.10;;;;;;;8.72;100.00;97725.19;5077382;28;20024;-81
2022/04/08 08:41:51;;;;;;;5.15;4.15;;;;;;;9.14;100.00;97749.94;5096267;28;20107;-83
2022/04/08 08:44:19;;;;;;;3.83;3.15;;;;;;;9.05;98.34;97736.75;5077242;28;20119;-83
2022/04/08 08:46:44;;;;;;;3.97;3.65;;;;;;;8.88;99.36;97740.53;5077675;28;20050;-83
2022/04/08 08:49:11;;;;;;;4.60;3.00;;;;;;;8.96;99.72;97738.22;5094971;28;20127;-83
2022/04/08 08:51:42;;;;;;;5.53;2.78;;;;;;;9.13;98.95;97739.63;5077119;28;20059;-85
2022/04/08 08:54:08;;;;;;;;;;;;;;;9.32;97.89;97754.75;5077067;28;20031;-84
2022/04/08 08:56:33;;;;;;;2.78;2.20;;;;;;;9.16;97.05;97749.81;5094953;28;20006;-84
2022/04/08 08:58:58;;;;;;;3.40;2.10;;;;;;;8.84;97.36;97739.09;5076695;28;20381;-84
2022/04/08 09:01:24;;;;;;;2.65;1.90;;;;;;;8.82;99.01;97730.59;5072845;28;20024;-86
2022/04/08 09:03:49;;;;;;;1.98;1.70;;;;;;;8.95;98.93;97741.78;5056714;28;20559;-84
2022/04/08 09:06:16;;;;;;;2.90;1.75;;;;;;;9.26;99.62;97745.59;5051807;28;20491;-85
2022/04/08 09:08:42;;;;;;;2.28;2.05;;;;;;;9.86;98.06;97749.91;5035431;28;20124;-84
2022/04/08 09:11:08;;;;;;;2.45;1.90;;;;;;;10.14;95.53;97751.25;5034978;28;20497;-84
2022/04/08 09:13:45;;;;;;;1.90;1.70;;;;;;;10.31;94.06;97747.41;5035150;28;20040;-84
2022/04/08 09:16:11;;;;;;;1.95;1.70;;;;;;;10.31;93.73;97751.78;5034921;28;20041;-84
2022/04/08 09:18:41;;;;;;;2.13;1.90;;;;;;;10.49;93.75;97766.00;5035166;28;20075;-83
2022/04/08 09:21:07;;;;;;;5.57;1.85;;;;;;;10.58;92.79;97733.25;5034911;28;20044;-85
2022/04/08 09:23:33;;;;;;;3.85;3.08;;;;;;;10.91;91.60;97761.03;5035088;28;20040;-84
2022/04/08 09:26:01;;;;;;;3.03;2.50;;;;;;;10.93;89.12;97754.78;5050813;28;20092;-84
2022/04/08 09:28:33;;;;;;;5.07;2.20;;;;;;;10.92;88.97;97758.34;5035014;28;20116;-84
2022/04/08 09:31:00;;;;;;;3.05;1.85;;;;;;;10.71;88.36;97757.41;5034626;28;20079;-84
2022/04/08 09:33:26;;;;;;;1.85;1.70;;;;;;;10.58;88.69;97767.09;5035000;28;20024;-84
2022/04/08 09:35:57;;;;;;;1.90;1.80;;;;;;;10.57;88.30;97757.59;5034834;28;20036;-85
2022/04/08 09:38:25;;;;;;;4.93;2.33;;;;;;;10.65;88.00;97773.47;5055011;28;20392;-85
2022/04/08 09:40:58;;;;;;;2.00;1.85;;;;;;;10.81;88.16;97786.97;5056020;28;20032;-85
2022/04/08 09:43:32;;;;;;;2.58;2.10;;;;;;;11.11;88.22;97778.53;5056001;28;20031;-84
2022/04/08 09:46:12;;;;;;;2.50;2.15;;;;;;;11.49;87.67;97761.63;5055867;28;20387;-83
2022/04/08 09:48:38;;;;;;;4.85;2.50;;;;;;;11.89;86.88;97789.75;5073605;28;20028;-83
2022/04/08 09:51:04;;;;;;;3.15;2.33;;;;;;;12.00;85.50;97776.63;5055639;28;20031;-83
2022/04/08 09:53:30;;;;;;;3.75;2.35;;;;;;;11.82;84.79;97765.91;5055847;28;20090;-83
2022/04/08 09:55:56;;;;;;;2.10;1.90;;;;;;;11.41;83.31;97780.50;5055778;28;20024;-84
2022/04/08 09:58:24;;;;;;;5.32;2.13;;;;;;;11.18;84.62;97776.28;5055375;28;20159;-84
2022/04/08 10:00:50;;;;;;;4.97;3.50;;;;;;;11.09;85.85;97780.44;5073562;28;20020;-85
2022/04/08 10:03:15;;;;;;;4.88;3.65;;;;;;;11.09;84.36;97790.06;5074493;28;20602;-85
2022/04/08 10:05:41;;;;;;;5.43;3.60;;;;;;;11.02;84.78;97768.03;5075622;28;20072;-84
2022/04/08 10:08:07;;;;;;;5.07;3.55;;;;;;;11.24;84.45;97770.59;5075264;28;20123;-84
2022/04/08 10:10:40;;;;;;;4.85;3.40;;;;;;;11.49;83.80;97767.69;5075573;28;20158;-83
2022/04/08 10:13:30;;;;;;;6.50;3.08;;;;;;;11.82;83.22;97794.59;5044155;28;20417;-83
2022/04/08 10:16:16;;;;;;;4.32;2.40;;;;;;;11.80;82.90;97775.66;5036123;28;20525;-83
2022/04/08 10:18:43;;;;;;;5.05;3.40;;;;;;;11.95;83.16;97781.41;5029016;28;20075;-84
2022/04/08 10:21:10;;;;;;;2.20;1.98;;;;;;;12.15;81.92;97798.03;5023485;28;20582;-84
2022/04/08 10:23:38;;;;;;;3.85;2.72;;;;;;;12.36;81.89;97785.81;5033507;28;20044;-84
2022/04/08 10:26:05;;;;;;;8.77;3.33;;;;;;;12.67;81.87;97780.63;5033535;28;20021;-84
2022/04/08 10:28:37;;;;;;;6.78;4.07;;;;;;;12.96;80.73;97783.34;5033813;28;20086;-84
2022/04/08 10:31:14;;;;;;;5.13;3.78;;;;;;;12.79;79.42;97779.56;5033503;28;20480;-84
2022/04/08 10:33:46;;;;;;;3.45;2.80;;;;;;;12.61;78.43;97774.16;5033722;28;20029;-80
2022/04/08 10:36:11;;;;;;;2.58;2.30;;;;;;;12.55;78.56;97768.59;5050218;28;20048;-81
2022/04/08 10:38:38;;;;;;;4.05;2.88;;;;;;;12.59;79.01;97781.25;5049215;28;20040;-82
2022/04/08 10:41:09;;;;;;;4.22;2.60;;;;;;;12.57;79.45;97782.38;5033436;28;20111;-81
2022/04/08 10:43:43;;;;;;;;;;;;;;;12.70;79.04;97781.19;5034165;28;20507;-80
2022/04/08 10:46:09;;;;;;;2.22;2.03;;;;;;;12.72;78.57;97766.22;5050088;28;20007;-81
2022/04/08 10:48:34;;;;;;;4.70;2.53;;;;;;;12.62;77.65;97782.81;5033426;28;20108;-83
2022/04/08 10:51:10;;;;;;;3.00;2.20;;;;;;;12.50;75.07;97761.16;5061866;28;20059;-81
2022/04/08 10:53:40;;;;;;;2.90;2.10;;;;;;;12.46;75.18;97762.38;5074808;28;20063;-80
2022/04/08 10:56:12;;;;;;;4.05;2.33;;;;;;;12.37;75.59;97753.53;5092337;28;20469;-80
2022/04/08 10:58:43;;;;;;;4.45;2.50;;;;;;;12.51;75.48;97764.59;5074419;28;20468;-79
2022/04/08 11:01:19;;;;;;;4.93;2.22;;;;;;;12.47;74.43;97764.00;5090437;28;20107;-79
2022/04/08 11:04:05;;;;;;;4.20;2.08;;;;;;;12.58;73.90;97758.72;5072094;28;20058;-82
2022/04/08 11:06:33;;;;;;;2.53;2.20;;;;;;;12.57;74.62;97762.31;5070405;28;20064;-81
2022/04/08 11:09:06;;;;;;;3.63;2.30;;;;;;;12.64;70.67;97765.19;5072167;28;20492;-81
2022/04/08 11:11:37;;;;;;;4.40;2.28;;;;;;;12.65;68.63;97748.59;5072058;28;20376;-80
2022/04/08 11:14:04;;;;;;;2.78;1.80;;;;;;;12.71;68.10;97761.94;5072253;28;20060;-90
2022/04/08 11:16:34;;;;;;;5.53;2.08;;;;;;;12.67;67.74;97768.38;5054585;28;20124;-91
2022/04/08 11:19:03;;;;;;;3.67;2.20;;;;;;;12.65;66.08;97766.88;5054779;28;20035;-88
2022/04/08 11:21:28;;;;;;;3.47;1.80;;;;;;;12.55;64.92;97740.69;5071944;28;20039;-88
2022/04/08 11:24:02;;;;;;;3.28;1.92;;;;;;;12.57;64.48;97764.09;5054093;28;20024;-87
2022/04/08 11:26:29;;;;;;;1.90;1.60;;;;;;;12.52;63.73;97771.50;5053733;28;20052;-87
2022/04/08 11:29:15;;;;;;;3.63;1.90;;;;;;;12.48;62.33;97752.63;5072531;28;20067;-88
2022/04/08 11:31:41;;;;;;;2.72;2.00;;;;;;;12.39;64.25;97746.41;5054314;28;20029;-91
2022/04/08 11:34:07;;;;;;;4.25;2.78;;;;;;;12.55;64.76;97738.09;5055155;28;20029;-89
2022/04/08 11:36:35;;;;;;;6.40;3.40;;;;;;;12.59;64.87;97721.19;5054981;28;20032;-90